createdAt,value
2023-02-09T00:00:27.760Z,96.30
2023-02-09T00:01:05.015Z,96.40
2023-02-09T00:01:36.859Z,96.40
2023-02-09T00:02:09.411Z,96.40
2023-02-09T00:02:41.881Z,96.60
2023-02-09T00:03:13.695Z,96.40
2023-02-09T00:03:46.039Z,96.30
2023-02-09T00:04:17.834Z,96.30
2023-02-09T00:04:49.683Z,97.20
2023-02-09T00:05:21.440Z,96.40
2023-02-09T00:05:53.191Z,96.30
2023-02-09T00:06:26.316Z,96.30
2023-02-09T00:07:00.458Z,96.90
2023-02-09T00:07:32.495Z,96.30
2023-02-09T00:08:04.479Z,96.70
2023-02-09T00:08:37.081Z,96.20
2023-02-09T00:09:08.851Z,96.20
2023-02-09T00:09:40.873Z,96.30
2023-02-09T00:10:12.820Z,96.30
2023-02-09T00:10:44.820Z,96.30
2023-02-09T00:11:47.481Z,97.20
2023-02-09T00:12:38.106Z,96.30
2023-02-09T00:13:23.334Z,96.90
2023-02-09T00:13:55.094Z,96.40
2023-02-09T00:14:27.543Z,97.20
2023-02-09T00:14:59.384Z,97.20
2023-02-09T00:15:31.172Z,96.40
2023-02-09T00:16:03.797Z,96.40
2023-02-09T00:16:35.811Z,96.40
2023-02-09T00:17:08.727Z,97.20
2023-02-09T00:17:40.586Z,96.40
2023-02-09T00:18:12.371Z,96.40
2023-02-09T00:18:44.172Z,97.20
2023-02-09T00:19:16.623Z,96.40
2023-02-09T00:19:48.505Z,96.80
2023-02-09T00:20:20.417Z,96.40
2023-02-09T00:21:00.238Z,97.00
2023-02-09T00:21:32.407Z,97.00
2023-02-09T00:22:04.212Z,96.70
2023-02-09T00:22:36.022Z,96.50
2023-02-09T00:23:07.824Z,96.70
2023-02-09T00:23:41.564Z,96.60
2023-02-09T00:24:14.391Z,96.30
2023-02-09T00:24:46.209Z,96.90
2023-02-09T00:25:18.012Z,96.30
2023-02-09T00:25:50.764Z,96.40
2023-02-09T00:26:22.767Z,96.40
2023-02-09T00:26:54.595Z,97.00
2023-02-09T00:27:26.393Z,96.40
2023-02-09T00:27:58.255Z,96.40
2023-02-09T00:28:30.583Z,97.10
2023-02-09T00:29:03.055Z,96.90
2023-02-09T00:29:34.813Z,97.00
2023-02-09T00:30:07.226Z,96.40
2023-02-09T00:30:39.067Z,96.40
2023-02-09T00:31:12.711Z,96.70
2023-02-09T00:31:47.238Z,96.40
2023-02-09T00:32:19.161Z,97.00
2023-02-09T00:32:50.910Z,97.00
2023-02-09T00:33:22.847Z,97.20
2023-02-09T00:33:54.617Z,96.40
2023-02-09T00:34:26.513Z,96.40
2023-02-09T00:35:00.156Z,97.10
2023-02-09T00:35:33.176Z,96.40
2023-02-09T00:36:06.800Z,96.40
2023-02-09T00:36:38.794Z,96.40
2023-02-09T00:37:10.617Z,96.90
2023-02-09T00:37:42.826Z,96.40
2023-02-09T00:38:15.393Z,97.00
2023-02-09T00:38:47.304Z,96.30
2023-02-09T00:39:20.027Z,96.40
2023-02-09T00:39:51.814Z,96.90
2023-02-09T00:40:24.209Z,97.20
2023-02-09T00:40:56.012Z,97.10
2023-02-09T00:41:46.368Z,96.30
2023-02-09T00:42:18.152Z,96.60
2023-02-09T00:42:50.429Z,96.30
2023-02-09T00:43:22.306Z,96.30
2023-02-09T00:43:54.050Z,96.50
2023-02-09T00:44:26.614Z,97.10
2023-02-09T00:44:58.468Z,96.30
2023-02-09T00:45:31.117Z,96.20
2023-02-09T00:46:03.291Z,96.20
2023-02-09T00:46:35.171Z,96.20
2023-02-09T00:47:08.357Z,96.20
2023-02-09T00:47:40.670Z,97.10
2023-02-09T00:48:12.496Z,96.20
2023-02-09T00:48:44.224Z,97.00
2023-02-09T00:49:16.269Z,96.20
2023-02-09T00:49:48.061Z,96.20
2023-02-09T00:50:19.814Z,96.20
2023-02-09T00:50:52.727Z,96.20
2023-02-09T00:51:24.598Z,96.20
2023-02-09T00:51:56.445Z,96.90
2023-02-09T00:52:28.196Z,96.90
2023-02-09T00:53:00.045Z,96.20
2023-02-09T00:53:31.868Z,96.20
2023-02-09T00:54:04.670Z,96.20
2023-02-09T00:54:36.461Z,96.20
2023-02-09T00:55:08.536Z,96.20
2023-02-09T00:55:40.336Z,96.20
2023-02-09T00:56:12.612Z,96.20
2023-02-09T00:56:45.187Z,96.20
2023-02-09T00:57:17.030Z,96.70
2023-02-09T00:57:48.898Z,96.20
2023-02-09T00:58:20.780Z,96.20
2023-02-09T00:58:52.536Z,96.20
2023-02-09T00:59:24.507Z,96.20
2023-02-09T00:59:56.287Z,96.10
2023-02-09T01:00:28.241Z,96.20
2023-02-09T01:01:01.822Z,96.20
2023-02-09T01:01:33.713Z,96.90
2023-02-09T01:02:05.519Z,97.00
2023-02-09T01:02:37.364Z,96.90
2023-02-09T01:03:09.638Z,96.20
2023-02-09T01:03:42.601Z,96.10
2023-02-09T01:04:14.554Z,96.10
2023-02-09T01:04:46.467Z,96.20
2023-02-09T01:05:20.642Z,96.20
2023-02-09T01:05:53.257Z,96.10
2023-02-09T01:06:25.220Z,96.10
2023-02-09T01:06:57.093Z,96.90
2023-02-09T01:07:28.919Z,96.10
2023-02-09T01:08:00.650Z,96.10
2023-02-09T01:08:32.810Z,96.10
2023-02-09T01:09:04.599Z,96.10
2023-02-09T01:09:37.041Z,96.10
2023-02-09T01:10:11.547Z,96.10
2023-02-09T01:10:43.652Z,96.60
2023-02-09T01:11:16.512Z,96.10
2023-02-09T01:11:48.311Z,96.80
2023-02-09T01:12:20.064Z,96.10
2023-02-09T01:12:51.820Z,96.20
2023-02-09T01:13:23.608Z,96.70
2023-02-09T01:13:57.266Z,96.10
2023-02-09T01:14:29.092Z,97.00
2023-02-09T01:15:02.882Z,96.20
2023-02-09T01:15:34.808Z,96.90
2023-02-09T01:16:13.221Z,96.10
2023-02-09T01:16:45.452Z,96.20
2023-02-09T01:17:17.358Z,96.10
2023-02-09T01:17:49.215Z,96.80
2023-02-09T01:18:21.011Z,96.10
2023-02-09T01:18:53.210Z,96.10
2023-02-09T01:19:26.745Z,96.10
2023-02-09T01:20:00.376Z,96.10
2023-02-09T01:20:32.126Z,96.10
2023-02-09T01:21:20.843Z,96.00
2023-02-09T01:21:52.735Z,96.00
2023-02-09T01:22:24.637Z,96.40
2023-02-09T01:22:56.527Z,96.10
2023-02-09T01:23:28.335Z,96.30
2023-02-09T01:24:00.124Z,96.00
2023-02-09T01:24:32.021Z,96.80
2023-02-09T01:25:05.374Z,96.00
2023-02-09T01:25:37.184Z,96.00
2023-02-09T01:26:10.750Z,96.90
2023-02-09T01:26:43.027Z,96.00
2023-02-09T01:27:14.999Z,96.80
2023-02-09T01:27:46.803Z,96.30
2023-02-09T01:28:18.655Z,96.10
2023-02-09T01:28:52.519Z,96.10
2023-02-09T01:29:24.384Z,96.00
2023-02-09T01:29:56.168Z,96.80
2023-02-09T01:30:28.364Z,96.10
2023-02-09T01:31:00.442Z,96.00
2023-02-09T01:31:35.729Z,96.90
2023-02-09T01:32:08.029Z,96.10
2023-02-09T01:32:40.099Z,96.50
2023-02-09T01:33:11.892Z,96.20
2023-02-09T01:33:43.736Z,96.00
2023-02-09T01:34:19.714Z,96.00
2023-02-09T01:34:54.627Z,96.10
2023-02-09T01:35:26.388Z,96.00
2023-02-09T01:36:05.329Z,96.00
2023-02-09T01:36:37.092Z,96.00
2023-02-09T01:37:08.832Z,96.00
2023-02-09T01:37:40.661Z,96.80
2023-02-09T01:38:12.527Z,96.00
2023-02-09T01:38:44.363Z,96.00
2023-02-09T01:39:16.214Z,96.10
2023-02-09T01:39:48.298Z,96.80
2023-02-09T01:40:20.157Z,96.10
2023-02-09T01:40:52.045Z,96.70
2023-02-09T01:41:24.546Z,96.00
2023-02-09T01:41:56.535Z,96.80
2023-02-09T01:42:28.313Z,96.90
2023-02-09T01:43:01.832Z,96.80
2023-02-09T01:43:51.826Z,96.00
2023-02-09T01:44:24.328Z,96.00
2023-02-09T01:45:21.401Z,96.00
2023-02-09T01:45:55.095Z,96.00
2023-02-09T01:46:29.534Z,96.20
2023-02-09T01:47:01.311Z,96.00
2023-02-09T01:47:44.808Z,96.40
2023-02-09T01:48:21.939Z,96.30
2023-02-09T01:49:05.226Z,96.00
2023-02-09T01:49:37.256Z,96.00
2023-02-09T01:50:09.608Z,96.00
2023-02-09T01:50:46.011Z,96.00
2023-02-09T01:51:19.957Z,96.00
2023-02-09T01:52:02.984Z,96.00
2023-02-09T01:52:35.329Z,96.00
2023-02-09T01:53:08.327Z,96.00
2023-02-09T01:53:40.230Z,96.00
2023-02-09T01:54:20.897Z,96.10
2023-02-09T01:54:59.704Z,96.00
2023-02-09T01:55:36.075Z,96.20
2023-02-09T01:56:14.606Z,96.60
2023-02-09T01:56:52.106Z,96.60
2023-02-09T01:57:29.838Z,96.00
2023-02-09T01:58:10.252Z,96.20
2023-02-09T01:58:42.182Z,96.00
2023-02-09T01:59:15.892Z,96.00
2023-02-09T02:00:05.091Z,96.00
2023-02-09T02:00:47.109Z,96.00
2023-02-09T02:01:19.310Z,96.10
2023-02-09T02:01:53.029Z,96.00
2023-02-09T02:02:25.644Z,96.00
2023-02-09T02:03:04.677Z,96.00
2023-02-09T02:03:36.516Z,96.00
2023-02-09T02:04:09.048Z,96.00
2023-02-09T02:04:44.744Z,96.00
2023-02-09T02:05:18.533Z,96.00
2023-02-09T02:05:55.883Z,96.00
2023-02-09T02:06:27.885Z,96.80
2023-02-09T02:07:12.358Z,96.10
2023-02-09T02:08:16.539Z,96.00
2023-02-09T02:09:01.015Z,96.00
2023-02-09T02:09:32.955Z,96.00
2023-02-09T02:10:05.842Z,96.00
2023-02-09T02:10:37.716Z,96.00
2023-02-09T02:11:10.348Z,96.70
2023-02-09T02:11:46.291Z,96.00
2023-02-09T02:12:18.355Z,96.00
2023-02-09T02:12:51.100Z,96.00
2023-02-09T02:13:23.234Z,96.80
2023-02-09T02:13:55.713Z,96.70
2023-02-09T02:14:39.120Z,96.00
2023-02-09T02:15:11.766Z,96.00
2023-02-09T02:16:04.750Z,96.00
2023-02-09T02:16:39.345Z,96.00
2023-02-09T02:17:29.677Z,96.00
2023-02-09T02:18:29.874Z,96.00
2023-02-09T02:19:24.465Z,96.00
2023-02-09T02:20:17.404Z,96.00
2023-02-09T02:21:10.180Z,96.00
2023-02-09T02:22:09.055Z,96.00
2023-02-09T02:22:43.863Z,96.00
2023-02-09T02:23:26.819Z,96.00
2023-02-09T02:24:29.821Z,96.00
2023-02-09T02:25:13.349Z,96.00
2023-02-09T02:26:07.214Z,96.00
2023-02-09T02:27:04.511Z,96.40
2023-02-09T02:27:51.260Z,96.00
2023-02-09T02:28:49.522Z,96.00
2023-02-09T02:29:38.764Z,96.00
2023-02-09T02:30:10.483Z,96.00
2023-02-09T02:30:45.913Z,97.10
2023-02-09T02:31:55.713Z,96.10
2023-02-09T02:32:30.546Z,96.10
2023-02-09T02:33:22.568Z,96.10
2023-02-09T02:34:00.140Z,96.10
2023-02-09T02:34:37.768Z,96.00
2023-02-09T02:35:12.317Z,96.10
2023-02-09T02:35:57.360Z,96.10
2023-02-09T02:36:58.715Z,96.10
2023-02-09T02:38:04.166Z,96.10
2023-02-09T02:38:46.248Z,96.10
2023-02-09T02:39:30.361Z,96.10
2023-02-09T02:40:22.956Z,96.70
2023-02-09T02:41:06.067Z,96.10
2023-02-09T02:42:10.318Z,96.90
2023-02-09T02:43:02.539Z,96.00
2023-02-09T02:43:49.318Z,96.00
2023-02-09T02:44:21.118Z,96.00
2023-02-09T02:45:12.061Z,96.10
2023-02-09T02:45:51.087Z,96.00
2023-02-09T02:46:41.612Z,96.00
2023-02-09T02:47:19.429Z,96.50
2023-02-09T02:48:04.641Z,96.00
2023-02-09T02:49:01.399Z,96.00
2023-02-09T02:49:42.287Z,96.00
2023-02-09T02:50:20.259Z,96.00
2023-02-09T02:51:29.600Z,96.50
2023-02-09T02:52:07.454Z,95.90
2023-02-09T02:52:43.291Z,96.00
2023-02-09T02:53:18.128Z,96.00
2023-02-09T02:53:56.026Z,96.00
2023-02-09T02:54:41.773Z,96.00
2023-02-09T02:55:16.765Z,96.00
2023-02-09T02:55:50.347Z,96.00
2023-02-09T02:56:30.352Z,96.70
2023-02-09T02:57:10.092Z,96.00
2023-02-09T02:57:47.314Z,96.00
2023-02-09T02:58:23.290Z,96.00
2023-02-09T02:58:59.460Z,96.60
2023-02-09T02:59:38.669Z,96.90
2023-02-09T03:00:16.557Z,96.00
2023-02-09T03:00:55.387Z,96.10
2023-02-09T03:01:39.450Z,96.10
2023-02-09T03:02:20.087Z,96.10
2023-02-09T03:02:59.086Z,96.00
2023-02-09T03:03:36.355Z,96.00
2023-02-09T03:04:11.445Z,96.00
2023-02-09T03:04:45.364Z,96.80
2023-02-09T03:05:18.681Z,96.10
2023-02-09T03:05:51.720Z,96.10
2023-02-09T03:06:23.506Z,96.10
2023-02-09T03:06:55.311Z,97.10
2023-02-09T03:07:27.332Z,96.10
2023-02-09T03:07:59.071Z,96.40
2023-02-09T03:08:30.985Z,96.10
2023-02-09T03:09:03.632Z,96.90
2023-02-09T03:09:35.501Z,96.10
2023-02-09T03:10:35.165Z,96.60
2023-02-09T03:11:10.064Z,96.00
2023-02-09T03:11:46.608Z,96.90
2023-02-09T03:12:33.386Z,96.10
2023-02-09T03:13:35.662Z,96.00
2023-02-09T03:14:23.746Z,96.00
2023-02-09T03:15:21.895Z,96.60
2023-02-09T03:16:20.601Z,96.00
2023-02-09T03:17:21.744Z,96.00
2023-02-09T03:18:21.373Z,96.00
2023-02-09T03:19:18.594Z,96.10
2023-02-09T03:20:24.280Z,96.10
2023-02-09T03:21:20.284Z,96.80
2023-02-09T03:22:05.623Z,96.00
2023-02-09T03:22:45.870Z,96.00
2023-02-09T03:23:33.973Z,96.00
2023-02-09T03:24:12.485Z,96.50
2023-02-09T03:24:58.965Z,96.00
2023-02-09T03:25:54.060Z,96.00
2023-02-09T03:26:31.322Z,96.00
2023-02-09T03:27:29.608Z,96.80
2023-02-09T03:28:28.771Z,96.10
2023-02-09T03:29:02.234Z,96.60
2023-02-09T03:29:36.312Z,96.10
2023-02-09T03:30:13.335Z,96.40
2023-02-09T03:30:49.735Z,96.00
2023-02-09T03:31:23.080Z,96.50
2023-02-09T03:31:55.628Z,96.00
2023-02-09T03:32:28.366Z,96.10
2023-02-09T03:33:00.620Z,96.10
2023-02-09T03:33:34.450Z,96.80
2023-02-09T03:34:06.842Z,96.10
2023-02-09T03:34:38.948Z,96.10
2023-02-09T03:35:16.186Z,96.30
2023-02-09T03:35:55.450Z,96.10
2023-02-09T03:36:33.477Z,96.10
2023-02-09T03:37:05.436Z,96.90
2023-02-09T03:37:37.232Z,96.10
2023-02-09T03:38:09.025Z,96.10
2023-02-09T03:38:40.883Z,96.10
2023-02-09T03:39:12.748Z,96.20
2023-02-09T03:39:44.528Z,96.10
2023-02-09T03:40:16.749Z,96.10
2023-02-09T03:40:48.562Z,96.10
2023-02-09T03:41:20.333Z,96.60
2023-02-09T03:41:52.071Z,96.10
2023-02-09T03:42:23.884Z,96.10
2023-02-09T03:42:55.696Z,96.40
2023-02-09T03:43:47.447Z,96.10
2023-02-09T03:44:28.314Z,96.40
2023-02-09T03:45:00.198Z,96.80
2023-02-09T03:45:32.002Z,96.90
2023-02-09T03:46:03.903Z,96.10
2023-02-09T03:46:35.767Z,96.10
2023-02-09T03:47:09.578Z,96.10
2023-02-09T03:47:41.407Z,96.40
2023-02-09T03:48:13.181Z,96.20
2023-02-09T03:48:44.907Z,96.10
2023-02-09T03:49:16.701Z,96.10
2023-02-09T03:49:48.558Z,96.10
2023-02-09T03:50:20.357Z,96.20
2023-02-09T03:50:52.086Z,97.00
2023-02-09T03:51:23.927Z,96.80
2023-02-09T03:51:55.944Z,96.20
2023-02-09T03:52:27.816Z,96.20
2023-02-09T03:52:59.618Z,96.20
2023-02-09T03:53:38.359Z,96.20
2023-02-09T03:54:10.204Z,97.00
2023-02-09T03:54:42.582Z,96.20
2023-02-09T03:55:14.392Z,96.20
2023-02-09T03:55:47.194Z,96.20
2023-02-09T03:56:18.964Z,96.10
2023-02-09T03:56:50.783Z,97.00
2023-02-09T03:57:22.642Z,96.30
2023-02-09T03:57:54.605Z,96.40
2023-02-09T03:58:26.409Z,96.90
2023-02-09T03:58:58.219Z,96.70
2023-02-09T03:59:30.420Z,96.90
2023-02-09T04:00:03.424Z,97.00
2023-02-09T04:00:43.895Z,96.20
2023-02-09T04:01:16.127Z,96.20
2023-02-09T04:01:48.608Z,96.30
2023-02-09T04:02:20.514Z,96.20
2023-02-09T04:02:52.290Z,96.20
2023-02-09T04:03:24.045Z,96.10
2023-02-09T04:03:55.788Z,96.10
2023-02-09T04:04:27.638Z,96.90
2023-02-09T04:04:59.413Z,96.70
2023-02-09T04:05:31.224Z,96.20
2023-02-09T04:06:04.053Z,96.10
2023-02-09T04:06:36.049Z,96.10
2023-02-09T04:07:07.953Z,96.30
2023-02-09T04:07:39.766Z,96.50
2023-02-09T04:08:11.530Z,96.20
2023-02-09T04:08:43.298Z,96.20
2023-02-09T04:09:15.731Z,96.20
2023-02-09T04:09:47.664Z,96.80
2023-02-09T04:10:19.588Z,96.40
2023-02-09T04:10:51.339Z,96.20
2023-02-09T04:11:23.601Z,96.20
2023-02-09T04:11:56.212Z,96.90
2023-02-09T04:12:27.954Z,96.20
2023-02-09T04:12:59.692Z,96.20
2023-02-09T04:13:31.499Z,96.20
2023-02-09T04:14:04.389Z,96.20
2023-02-09T04:14:36.150Z,96.10
2023-02-09T04:15:08.335Z,96.90
2023-02-09T04:15:40.180Z,96.10
2023-02-09T04:16:12.124Z,96.10
2023-02-09T04:16:43.973Z,96.10
2023-02-09T04:17:16.084Z,96.40
2023-02-09T04:17:49.927Z,96.00
2023-02-09T04:18:22.535Z,96.10
2023-02-09T04:18:54.386Z,97.00
2023-02-09T04:19:26.753Z,96.20
2023-02-09T04:19:58.567Z,96.20
2023-02-09T04:20:30.318Z,96.20
2023-02-09T04:21:02.018Z,96.20
2023-02-09T04:21:33.840Z,96.20
2023-02-09T04:22:05.662Z,97.00
2023-02-09T04:22:39.931Z,96.50
2023-02-09T04:23:12.034Z,96.20
2023-02-09T04:23:43.801Z,96.20
2023-02-09T04:24:15.706Z,96.90
2023-02-09T04:24:47.459Z,96.90
2023-02-09T04:25:19.330Z,96.80
2023-02-09T04:25:51.157Z,96.20
2023-02-09T04:26:23.037Z,96.30
2023-02-09T04:26:54.828Z,96.20
2023-02-09T04:27:28.359Z,96.70
2023-02-09T04:28:00.260Z,96.10
2023-02-09T04:28:32.449Z,96.10
2023-02-09T04:29:04.703Z,96.50
2023-02-09T04:29:36.440Z,96.80
2023-02-09T04:30:09.110Z,96.10
2023-02-09T04:30:43.652Z,96.10
2023-02-09T04:31:16.435Z,96.70
2023-02-09T04:31:48.347Z,96.10
2023-02-09T04:32:20.268Z,96.20
2023-02-09T04:32:52.229Z,96.60
2023-02-09T04:33:24.883Z,96.10
2023-02-09T04:33:56.676Z,96.60
2023-02-09T04:34:28.407Z,96.10
2023-02-09T04:35:00.123Z,96.90
2023-02-09T04:35:31.945Z,96.70
2023-02-09T04:36:05.307Z,96.10
2023-02-09T04:36:37.056Z,96.10
2023-02-09T04:37:08.812Z,96.20
2023-02-09T04:37:40.533Z,96.20
2023-02-09T04:38:12.309Z,96.10
2023-02-09T04:38:44.157Z,96.60
2023-02-09T04:39:16.382Z,96.10
2023-02-09T04:39:48.209Z,96.20
2023-02-09T04:40:20.010Z,96.30
2023-02-09T04:40:54.089Z,96.20
2023-02-09T04:41:25.987Z,97.00
2023-02-09T04:41:57.767Z,96.30
2023-02-09T04:42:29.553Z,97.00
2023-02-09T04:43:01.323Z,96.30
2023-02-09T04:43:33.880Z,96.30
2023-02-09T04:44:05.677Z,96.30
2023-02-09T04:44:37.415Z,97.10
2023-02-09T04:45:09.368Z,96.30
2023-02-09T04:45:42.377Z,96.30
2023-02-09T04:46:17.761Z,97.00
2023-02-09T04:46:49.626Z,97.10
2023-02-09T04:47:21.352Z,96.40
2023-02-09T04:47:53.112Z,96.30
2023-02-09T04:48:27.206Z,96.40
2023-02-09T04:48:59.058Z,96.90
2023-02-09T04:49:30.849Z,96.40
2023-02-09T04:50:02.721Z,96.40
2023-02-09T04:50:34.597Z,96.30
2023-02-09T04:51:06.531Z,97.00
2023-02-09T04:51:38.265Z,96.40
2023-02-09T04:52:10.531Z,96.40
2023-02-09T04:52:42.304Z,96.80
2023-02-09T04:53:14.991Z,96.40
2023-02-09T04:53:46.777Z,97.00
2023-02-09T04:54:18.560Z,97.10
2023-02-09T04:54:50.364Z,97.10
2023-02-09T04:55:22.106Z,96.70
2023-02-09T04:55:53.862Z,96.50
2023-02-09T04:56:25.625Z,96.50
2023-02-09T04:57:15.880Z,96.50
2023-02-09T04:58:06.983Z,97.30
2023-02-09T04:58:57.223Z,96.50
2023-02-09T04:59:34.825Z,97.10
2023-02-09T05:00:07.174Z,96.40
2023-02-09T05:00:39.427Z,96.50
2023-02-09T05:01:20.751Z,97.00
2023-02-09T05:01:52.590Z,96.40
2023-02-09T05:02:24.396Z,96.40
2023-02-09T05:02:56.381Z,96.40
2023-02-09T05:03:28.737Z,97.20
2023-02-09T05:04:00.543Z,97.20
2023-02-09T05:04:32.309Z,96.70
2023-02-09T05:05:04.582Z,96.80
2023-02-09T05:05:40.595Z,96.50
2023-02-09T05:06:12.609Z,96.50
2023-02-09T05:06:44.397Z,97.20
2023-02-09T05:07:16.194Z,96.50
2023-02-09T05:07:47.989Z,96.60
2023-02-09T05:08:19.851Z,97.30
2023-02-09T05:08:51.599Z,97.30
2023-02-09T05:09:23.331Z,96.50
2023-02-09T05:09:55.096Z,96.50
2023-02-09T05:10:26.858Z,96.60
2023-02-09T05:10:59.254Z,96.60
2023-02-09T05:11:31.185Z,96.50
2023-02-09T05:12:02.971Z,96.60
2023-02-09T05:12:34.745Z,97.40
2023-02-09T05:13:06.609Z,97.20
2023-02-09T05:13:38.871Z,97.10
2023-02-09T05:14:10.727Z,96.70
2023-02-09T05:14:42.440Z,97.00
2023-02-09T05:15:14.667Z,96.60
2023-02-09T05:15:46.924Z,96.60
2023-02-09T05:16:18.716Z,96.70
2023-02-09T05:16:50.651Z,97.50
2023-02-09T05:17:22.573Z,96.70
2023-02-09T05:17:55.030Z,96.70
2023-02-09T05:18:27.049Z,96.70
2023-02-09T05:18:58.828Z,97.40
2023-02-09T05:19:30.837Z,96.70
2023-02-09T05:20:03.300Z,97.20
2023-02-09T05:20:36.396Z,97.30
2023-02-09T05:21:08.178Z,96.70
2023-02-09T05:21:39.931Z,96.70
2023-02-09T05:22:11.718Z,97.20
2023-02-09T05:22:43.517Z,96.80
2023-02-09T05:23:15.537Z,97.60
2023-02-09T05:23:47.311Z,96.90
2023-02-09T05:24:19.054Z,96.70
2023-02-09T05:24:50.810Z,96.70
2023-02-09T05:25:22.647Z,97.30
2023-02-09T05:25:56.010Z,96.80
2023-02-09T05:26:27.873Z,96.70
2023-02-09T05:26:59.626Z,96.70
2023-02-09T05:27:31.499Z,96.70
2023-02-09T05:28:03.970Z,97.40
2023-02-09T05:28:36.262Z,97.00
2023-02-09T05:29:08.041Z,96.80
2023-02-09T05:29:39.813Z,97.50
2023-02-09T05:30:12.028Z,97.70
2023-02-09T05:30:44.401Z,96.80
2023-02-09T05:31:16.875Z,97.60
2023-02-09T05:31:48.767Z,96.80
2023-02-09T05:32:20.689Z,96.50
2023-02-09T05:32:53.283Z,96.80
2023-02-09T05:33:25.932Z,96.80
2023-02-09T05:33:57.780Z,97.40
2023-02-09T05:34:29.563Z,96.80
2023-02-09T05:35:01.352Z,97.40
2023-02-09T05:35:33.162Z,96.80
2023-02-09T05:36:09.215Z,97.70
2023-02-09T05:36:41.029Z,96.80
2023-02-09T05:37:12.794Z,97.60
2023-02-09T05:37:44.585Z,96.80
2023-02-09T05:38:16.514Z,96.90
2023-02-09T05:38:48.299Z,96.80
2023-02-09T05:39:20.251Z,96.90
2023-02-09T05:39:52.114Z,97.10
2023-02-09T05:40:24.019Z,96.90
2023-02-09T05:40:55.851Z,97.70
2023-02-09T05:41:46.079Z,96.90
2023-02-09T05:42:17.912Z,96.90
2023-02-09T05:42:49.785Z,96.80
2023-02-09T05:43:21.570Z,96.90
2023-02-09T05:43:53.734Z,97.60
2023-02-09T05:44:25.509Z,96.80
2023-02-09T05:44:57.391Z,96.80
2023-02-09T05:45:29.315Z,97.60
2023-02-09T05:46:01.323Z,96.90
2023-02-09T05:46:33.153Z,97.50
2023-02-09T05:47:04.936Z,97.10
2023-02-09T05:47:36.963Z,97.00
2023-02-09T05:48:08.754Z,96.90
2023-02-09T05:48:40.573Z,96.90
2023-02-09T05:49:12.401Z,96.90
2023-02-09T05:49:44.621Z,96.90
2023-02-09T05:50:16.769Z,96.90
2023-02-09T05:50:48.588Z,96.90
2023-02-09T05:51:20.845Z,97.60
2023-02-09T05:51:52.596Z,97.70
2023-02-09T05:52:24.807Z,96.90
2023-02-09T05:53:00.569Z,96.90
2023-02-09T05:53:32.297Z,96.90
2023-02-09T05:54:04.289Z,96.90
2023-02-09T05:54:36.064Z,97.00
2023-02-09T05:55:08.020Z,97.00
2023-02-09T05:55:39.869Z,97.00
2023-02-09T05:56:11.673Z,97.00
2023-02-09T05:56:43.891Z,97.00
2023-02-09T05:57:16.522Z,97.00
2023-02-09T05:57:48.313Z,97.10
2023-02-09T05:58:20.121Z,97.00
2023-02-09T05:58:51.938Z,97.00
2023-02-09T05:59:23.813Z,97.60
2023-02-09T05:59:55.711Z,97.10
2023-02-09T06:00:29.700Z,97.20
2023-02-09T06:01:01.478Z,97.10
2023-02-09T06:01:33.277Z,97.10
2023-02-09T06:02:05.143Z,97.10
2023-02-09T06:02:37.023Z,97.80
2023-02-09T06:03:08.863Z,97.10
2023-02-09T06:03:40.714Z,97.20
2023-02-09T06:04:12.633Z,97.10
2023-02-09T06:04:44.572Z,98.00
2023-02-09T06:05:16.502Z,97.20
2023-02-09T06:05:48.257Z,97.20
2023-02-09T06:06:20.040Z,97.20
2023-02-09T06:06:52.180Z,97.70
2023-02-09T06:07:23.988Z,97.20
2023-02-09T06:07:56.218Z,97.70
2023-02-09T06:08:27.996Z,97.20
2023-02-09T06:08:59.769Z,97.80
2023-02-09T06:09:31.538Z,98.10
2023-02-09T06:10:03.854Z,97.80
2023-02-09T06:10:35.645Z,97.30
2023-02-09T06:11:07.591Z,96.90
2023-02-09T06:11:39.796Z,97.20
2023-02-09T06:12:11.782Z,97.90
2023-02-09T06:12:43.598Z,97.60
2023-02-09T06:13:15.401Z,97.20
2023-02-09T06:13:47.152Z,97.60
2023-02-09T06:14:19.786Z,97.30
2023-02-09T06:14:51.815Z,97.30
2023-02-09T06:15:23.693Z,97.20
2023-02-09T06:15:55.483Z,97.40
2023-02-09T06:16:27.280Z,97.90
2023-02-09T06:16:59.184Z,97.30
2023-02-09T06:17:30.973Z,97.30
2023-02-09T06:18:02.937Z,97.20
2023-02-09T06:18:34.742Z,97.20
2023-02-09T06:19:07.664Z,97.20
2023-02-09T06:19:39.500Z,97.30
2023-02-09T06:20:11.852Z,97.80
2023-02-09T06:20:43.746Z,97.20
2023-02-09T06:21:15.734Z,97.40
2023-02-09T06:21:47.698Z,97.90
2023-02-09T06:22:19.464Z,97.90
2023-02-09T06:22:51.250Z,97.30
2023-02-09T06:23:23.068Z,97.90
2023-02-09T06:23:54.969Z,97.90
2023-02-09T06:24:26.828Z,97.60
2023-02-09T06:24:58.792Z,97.30
2023-02-09T06:25:31.020Z,97.90
2023-02-09T06:26:07.499Z,97.40
2023-02-09T06:26:40.022Z,97.30
2023-02-09T06:27:13.311Z,97.30
2023-02-09T06:27:45.120Z,97.30
2023-02-09T06:28:17.012Z,98.10
2023-02-09T06:28:48.880Z,97.30
2023-02-09T06:29:20.924Z,97.30
2023-02-09T06:29:52.859Z,97.30
2023-02-09T06:30:24.703Z,97.30
2023-02-09T06:30:56.507Z,97.80
2023-02-09T06:31:28.784Z,98.10
2023-02-09T06:32:00.729Z,97.80
2023-02-09T06:32:32.770Z,97.40
2023-02-09T06:33:04.639Z,97.50
2023-02-09T06:33:37.652Z,97.30
2023-02-09T06:34:09.786Z,97.30
2023-02-09T06:34:41.560Z,97.30
2023-02-09T06:35:13.403Z,97.40
2023-02-09T06:35:46.107Z,98.10
2023-02-09T06:36:17.890Z,98.00
2023-02-09T06:36:49.676Z,97.90
2023-02-09T06:37:21.497Z,97.90
2023-02-09T06:37:57.122Z,97.40
2023-02-09T06:38:34.455Z,97.40
2023-02-09T06:39:10.490Z,98.00
2023-02-09T06:39:42.341Z,97.30
2023-02-09T06:40:14.277Z,98.20
2023-02-09T06:40:47.264Z,97.40
2023-02-09T06:41:19.213Z,97.40
2023-02-09T06:41:52.216Z,97.40
2023-02-09T06:42:24.084Z,98.00
2023-02-09T06:42:55.865Z,97.40
2023-02-09T06:43:27.986Z,97.50
2023-02-09T06:43:59.710Z,98.00
2023-02-09T06:44:31.869Z,97.80
2023-02-09T06:45:03.743Z,97.50
2023-02-09T06:45:39.296Z,97.40
2023-02-09T06:46:13.227Z,97.40
2023-02-09T06:46:45.077Z,98.10
2023-02-09T06:47:16.794Z,97.50
2023-02-09T06:47:48.584Z,97.40
2023-02-09T06:48:20.459Z,97.50
2023-02-09T06:48:52.306Z,97.40
2023-02-09T06:49:25.270Z,98.10
2023-02-09T06:49:57.340Z,97.50
2023-02-09T06:50:29.151Z,97.50
2023-02-09T06:51:01.179Z,97.70
2023-02-09T06:51:32.998Z,97.70
2023-02-09T06:52:05.545Z,97.50
2023-02-09T06:52:37.374Z,98.00
2023-02-09T06:53:09.180Z,98.10
2023-02-09T06:53:42.783Z,97.50
2023-02-09T06:54:14.589Z,97.50
2023-02-09T06:54:46.365Z,97.50
2023-02-09T06:55:18.219Z,98.20
2023-02-09T06:55:49.955Z,97.50
2023-02-09T06:56:21.721Z,97.50
2023-02-09T06:56:53.440Z,98.10
2023-02-09T06:57:25.509Z,97.50
2023-02-09T06:57:57.700Z,97.50
2023-02-09T06:58:29.676Z,97.50
2023-02-09T06:59:01.437Z,97.50
2023-02-09T06:59:33.224Z,97.50
2023-02-09T07:00:07.448Z,97.50
2023-02-09T07:00:39.221Z,97.50
2023-02-09T07:01:13.124Z,97.50
2023-02-09T07:01:45.083Z,97.50
2023-02-09T07:02:16.908Z,97.50
2023-02-09T07:02:49.160Z,98.30
2023-02-09T07:03:21.975Z,97.60
2023-02-09T07:03:53.830Z,97.50
2023-02-09T07:04:25.613Z,97.50
2023-02-09T07:04:57.794Z,97.50
2023-02-09T07:05:29.661Z,98.30
2023-02-09T07:06:10.107Z,97.50
2023-02-09T07:06:41.879Z,97.50
2023-02-09T07:07:16.861Z,97.60
2023-02-09T07:07:48.662Z,97.50
2023-02-09T07:08:23.133Z,97.50
2023-02-09T07:08:54.995Z,98.40
2023-02-09T07:09:26.757Z,97.50
2023-02-09T07:09:58.529Z,98.20
2023-02-09T07:10:30.617Z,97.50
2023-02-09T07:11:06.664Z,98.10
2023-02-09T07:11:38.776Z,97.50
2023-02-09T07:12:10.566Z,97.50
2023-02-09T07:12:43.707Z,97.50
2023-02-09T07:13:15.465Z,98.00
2023-02-09T07:13:47.282Z,97.60
2023-02-09T07:14:19.182Z,97.60
2023-02-09T07:14:51.040Z,97.50
2023-02-09T07:15:22.904Z,97.50
2023-02-09T07:15:56.851Z,97.50
2023-02-09T07:16:28.873Z,97.50
2023-02-09T07:17:00.857Z,97.70
2023-02-09T07:17:32.680Z,98.40
2023-02-09T07:18:04.499Z,98.30
2023-02-09T07:18:37.101Z,98.40
2023-02-09T07:19:08.842Z,97.50
2023-02-09T07:19:40.603Z,98.30
2023-02-09T07:20:13.038Z,98.40
2023-02-09T07:20:45.063Z,97.60
2023-02-09T07:21:19.783Z,97.60
2023-02-09T07:21:51.779Z,97.60
2023-02-09T07:22:25.521Z,97.70
2023-02-09T07:22:59.481Z,98.00
2023-02-09T07:23:31.412Z,98.20
2023-02-09T07:24:03.308Z,98.40
2023-02-09T07:24:35.084Z,97.50
2023-02-09T07:25:07.174Z,97.50